Time;durP1;ratioP1;P1;durP2;ratioP2;P2;SDS_P1;SDS_P2;PMS_P1;PMS_P2;Temp;Humidity;BMP_temperature;BMP_pressure;BME280_temperature;BME280_humidity;BME280_pressure;Samples;Min_cycle;Max_cycle;Signal;HPM_P1;HPM_P2
2022/12/11 00:01:18;;;;;;;101.88;31.70;;;;;;;-1.47;100.00;66618.94;4970168;28;20247;-80
2022/12/11 00:03:44;;;;;;;93.30;24.88;;;;;;;-1.49;100.00;66619.31;4987114;28;20034;-80
2022/12/11 00:06:13;;;;;;;96.55;29.27;;;;;;;-1.51;100.00;66617.06;4979958;28;20043;-80
2022/12/11 00:08:38;;;;;;;102.45;32.45;;;;;;;-1.48;100.00;66622.47;4987621;28;20038;-80
2022/12/11 00:11:06;;;;;;;117.38;33.67;;;;;;;-1.44;100.00;66621.75;4982569;28;20046;-80
2022/12/11 00:13:32;;;;;;;101.65;29.58;;;;;;;-1.42;100.00;66629.22;4971490;28;20136;-80
2022/12/11 00:15:58;;;;;;;100.47;29.52;;;;;;;-1.42;100.00;66618.78;4967322;28;20051;-80
2022/12/11 00:18:23;;;;;;;124.50;38.20;;;;;;;-1.42;100.00;66624.56;4972274;28;20569;-80
2022/12/11 00:20:49;;;;;;;91.38;28.10;;;;;;;-1.39;100.00;66627.38;4984352;28;20083;-80
2022/12/11 00:23:14;;;;;;;116.20;38.03;;;;;;;-1.39;100.00;66629.97;4975003;28;20529;-80
2022/12/11 00:25:42;;;;;;;102.97;31.90;;;;;;;-1.39;100.00;66627.38;4983732;28;20112;-80
2022/12/11 00:28:08;;;;;;;112.32;31.58;;;;;;;;;;4990145;28;20042;-80
2022/12/11 00:30:33;;;;;;;131.77;39.53;;;;;;;;;;4978657;28;20053;-79
2022/12/11 00:32:58;;;;;;;95.03;26.70;;;;;;;-1.32;100.00;66637.25;4985763;28;20510;-80
2022/12/11 00:35:24;;;;;;;100.78;28.52;;;;;;;-1.33;100.00;66633.53;4972460;28;20414;-80
2022/12/11 00:37:49;;;;;;;101.82;26.02;;;;;;;;;;4974944;28;20097;-80
2022/12/11 00:40:14;;;;;;;128.77;36.63;;;;;;;-1.28;100.00;66641.78;4975580;28;20286;-80
2022/12/11 00:42:39;;;;;;;143.40;39.08;;;;;;;-1.27;100.00;66640.84;4988623;28;20038;-79
2022/12/11 00:45:05;;;;;;;140.10;40.22;;;;;;;-1.29;100.00;66640.66;4984078;28;20050;-80
2022/12/11 00:47:31;;;;;;;110.97;33.58;;;;;;;-1.31;100.00;66638.97;4992224;28;20066;-80
2022/12/11 00:49:56;;;;;;;130.40;39.40;;;;;;;-1.32;100.00;66635.22;4983737;28;20132;-80
2022/12/11 00:52:22;;;;;;;97.28;29.20;;;;;;;-1.33;100.00;66636.16;4971568;28;20065;-79
2022/12/11 00:54:47;;;;;;;85.78;25.40;;;;;;;-1.31;100.00;66638.41;4985427;28;20045;-80
2022/12/11 00:57:12;;;;;;;112.80;32.13;;;;;;;-1.31;100.00;66635.78;4989280;28;20070;-80
2022/12/11 00:59:38;;;;;;;124.70;38.55;;;;;;;-1.32;100.00;66634.66;4989741;28;20097;-81
2022/12/11 01:02:03;;;;;;;108.63;31.50;;;;;;;-1.32;100.00;66640.47;4993978;28;20137;-80
2022/12/11 01:04:29;;;;;;;100.53;30.45;;;;;;;-1.28;100.00;66639.72;4993432;28;20046;-80
2022/12/11 01:06:54;;;;;;;107.88;27.40;;;;;;;-1.29;100.00;66638.59;4994345;28;20042;-79
2022/12/11 01:12:03;;;;;;;111.40;35.03;;;;;;;;;;4965993;28;20138;-80
2022/12/11 01:14:29;;;;;;;117.72;35.28;;;;;;;-1.23;100.00;66644.78;4977414;28;20483;-80
2022/12/11 01:16:54;;;;;;;103.80;29.85;;;;;;;-1.21;100.00;66647.00;4973566;28;20121;-79
2022/12/11 01:19:19;;;;;;;119.55;38.60;;;;;;;-1.21;100.00;66649.63;4972987;28;20391;-80
2022/12/11 01:21:45;;;;;;;92.25;28.60;;;;;;;-1.19;100.00;66649.81;4988517;28;20078;-79
2022/12/11 01:24:10;;;;;;;101.63;29.25;;;;;;;-1.20;100.00;66650.75;4991978;28;20069;-79
2022/12/11 01:26:35;;;;;;;111.32;35.17;;;;;;;-1.21;100.00;66647.59;4981564;28;20049;-80
2022/12/11 01:29:01;;;;;;;111.65;31.92;;;;;;;-1.15;100.00;66653.78;4980538;28;20201;-79
2022/12/11 01:31:26;;;;;;;91.40;29.55;;;;;;;-1.15;100.00;66654.31;4986270;28;20049;-80
2022/12/11 01:33:55;;;;;;;116.90;34.55;;;;;;;-1.15;100.00;66656.38;4992523;28;20140;-79
2022/12/11 01:36:22;;;;;;;130.93;37.55;;;;;;;-1.10;100.00;66664.03;4992773;28;20046;-80
2022/12/11 01:38:48;;;;;;;82.22;22.85;;;;;;;-1.15;100.00;66654.31;4992816;28;20455;-80
2022/12/11 01:41:13;;;;;;;112.45;30.35;;;;;;;;;;4978967;28;20034;-80
2022/12/11 01:44:03;;;;;;;134.52;37.13;;;;;;;-1.08;100.00;66663.66;4984904;28;20034;-81
2022/12/11 01:46:30;;;;;;;98.63;27.65;;;;;;;-1.09;100.00;66660.50;4980829;28;20129;-80
2022/12/11 01:48:56;;;;;;;139.02;40.90;;;;;;;-1.13;100.00;66656.56;4980211;28;20043;-80
2022/12/11 01:51:23;;;;;;;126.95;41.35;;;;;;;-1.07;100.00;66667.97;4990630;28;20065;-80
2022/12/11 01:53:58;;;;;;;118.85;35.58;;;;;;;-1.03;100.00;66666.69;4986689;28;20031;-79
2022/12/11 01:56:23;;;;;;;145.13;39.95;;;;;;;-1.05;100.00;66665.00;4985291;28;20049;-79
2022/12/11 01:58:53;;;;;;;135.18;39.70;;;;;;;-0.99;100.00;66665.94;4985081;28;20410;-80
2022/12/11 02:01:26;;;;;;;142.70;44.63;;;;;;;-1.03;100.00;66667.25;4976712;28;20034;-81
2022/12/11 02:03:53;;;;;;;141.02;38.42;;;;;;;-1.02;100.00;66668.34;4987774;28;20041;-81
2022/12/11 02:06:33;;;;;;;156.38;41.75;;;;;;;;;;4973824;28;20042;-80
2022/12/11 02:08:59;;;;;;;157.60;47.38;;;;;;;-1.03;100.00;66667.25;4972208;28;20039;-79
2022/12/11 02:11:29;;;;;;;142.60;33.28;;;;;;;;;;4977083;28;20050;-80
2022/12/11 02:14:31;;;;;;;130.70;32.72;;;;;;;-1.05;100.00;66667.03;4990226;28;20129;-80
2022/12/11 02:17:20;;;;;;;145.50;40.83;;;;;;;-1.03;100.00;66666.69;4983556;28;20057;-80
2022/12/11 02:22:39;;;;;;;154.57;39.15;;;;;;;-1.01;100.00;66669.47;1471562;26;20050;-86
2022/12/11 02:25:23;;;;;;;162.82;43.95;;;;;;;;;;5009643;28;20080;-86
2022/12/11 02:28:30;;;;;;;147.65;38.42;;;;;;;-1.03;100.00;66672.47;4952667;28;20035;-86
2022/12/11 02:31:39;;;;;;;146.43;38.47;;;;;;;-1.03;100.00;66669.28;4957086;28;20047;-86
2022/12/11 02:37:24;;;;;;;149.98;37.88;;;;;;;;;;4867935;29;20057;-86
2022/12/11 02:39:57;;;;;;;149.48;39.63;;;;;;;-1.02;100.00;66667.78;4856693;29;20127;-86
2022/12/11 02:45:13;;;;;;;161.57;47.85;;;;;;;;;;5048533;27;20404;-81
2022/12/11 02:47:40;;;;;;;129.50;33.65;;;;;;;-1.00;100.00;66670.59;5025589;28;20096;-82
2022/12/11 02:50:11;;;;;;;171.95;43.42;;;;;;;-0.98;100.00;66667.63;5011998;28;20124;-81
2022/12/11 02:52:38;;;;;;;133.77;34.38;;;;;;;-0.99;100.00;66665.94;5012549;28;20148;-80
2022/12/11 02:55:06;;;;;;;158.18;42.35;;;;;;;-0.96;100.00;66674.53;5016806;28;20046;-81
2022/12/11 02:57:41;;;;;;;140.40;40.25;;;;;;;-0.94;100.00;66677.34;5012559;28;20037;-79
2022/12/11 03:00:07;;;;;;;133.68;36.65;;;;;;;-0.96;100.00;66674.53;5004345;28;20089;-79
2022/12/11 03:02:36;;;;;;;140.50;38.95;;;;;;;;;;5004484;28;20342;-79
2022/12/11 03:05:01;;;;;;;141.45;37.15;;;;;;;;;;4987831;28;20468;-79
2022/12/11 03:07:32;;;;;;;145.55;38.70;;;;;;;-0.90;100.00;66681.28;5007728;28;20046;-79
2022/12/11 03:09:57;;;;;;;136.52;37.08;;;;;;;;;;5006533;28;20048;-79
2022/12/11 03:12:32;;;;;;;147.23;37.35;;;;;;;-0.91;100.00;66675.50;5017898;28;20041;-79
2022/12/11 03:15:03;;;;;;;155.95;36.45;;;;;;;-0.93;100.00;66683.69;5017058;28;20038;-79
2022/12/11 03:17:34;;;;;;;189.35;50.28;;;;;;;-0.94;100.00;66676.78;5007390;28;20440;-79
2022/12/11 03:20:05;;;;;;;175.80;46.85;;;;;;;;;;5009056;28;20042;-79
2022/12/11 03:22:37;;;;;;;181.82;47.83;;;;;;;-0.88;100.00;66683.53;5006536;28;20053;-78
2022/12/11 03:25:08;;;;;;;165.95;37.42;;;;;;;-0.89;100.00;66682.41;5005157;28;20042;-79
2022/12/11 03:27:52;;;;;;;152.50;34.40;;;;;;;-0.92;100.00;66679.03;4995131;28;20148;-79
2022/12/11 03:30:18;;;;;;;166.25;39.33;;;;;;;;;;4992721;28;20122;-79
2022/12/11 03:32:51;;;;;;;154.82;39.15;;;;;;;-0.91;100.00;66682.78;4998240;28;20038;-79
2022/12/11 03:35:20;;;;;;;208.27;47.80;;;;;;;;;;5001939;28;20383;-80
2022/12/11 03:37:48;;;;;;;149.18;38.08;;;;;;;-0.87;100.00;66679.41;5003534;28;20180;-79
2022/12/11 03:40:18;;;;;;;135.23;33.05;;;;;;;-0.92;100.00;66679.59;5006060;28;20037;-79
2022/12/11 03:42:47;;;;;;;143.73;37.80;;;;;;;-0.87;100.00;66686.69;5002787;28;20045;-80
2022/12/11 03:45:14;;;;;;;144.45;37.38;;;;;;;-0.87;100.00;66684.63;5003308;28;20041;-80
2022/12/11 03:47:42;;;;;;;150.43;39.92;;;;;;;-0.83;100.00;66689.16;5005565;28;20042;-79
2022/12/11 03:50:11;;;;;;;127.07;36.45;;;;;;;-0.83;100.00;66689.16;5004972;28;20053;-79
2022/12/11 03:52:40;;;;;;;149.38;41.75;;;;;;;-0.80;100.00;66692.53;5005851;28;20522;-79
2022/12/11 03:55:06;;;;;;;129.50;30.52;;;;;;;-0.80;100.00;66691.97;4991647;28;20085;-79
2022/12/11 03:57:35;;;;;;;121.07;30.90;;;;;;;-0.82;100.00;66690.25;4993064;28;20057;-79
2022/12/11 04:00:03;;;;;;;139.48;40.40;;;;;;;;;;4986605;28;20073;-79
2022/12/11 04:02:29;;;;;;;145.80;40.67;;;;;;;-0.81;100.00;66686.16;4997550;28;20129;-79
2022/12/11 04:04:54;;;;;;;131.43;39.97;;;;;;;-0.79;100.00;66693.63;4981968;28;20077;-78
2022/12/11 04:07:20;;;;;;;132.23;36.35;;;;;;;;;;4989548;28;20038;-78
2022/12/11 04:09:45;;;;;;;127.47;37.70;;;;;;;-0.77;100.00;66690.66;4986739;28;20046;-79
2022/12/11 04:12:10;;;;;;;129.50;35.20;;;;;;;-0.77;100.00;66695.31;4984735;28;20406;-78
2022/12/11 04:25:32;;;;;;;132.13;39.53;;;;;;;-0.74;100.00;66699.25;4977947;28;20093;-78
2022/12/11 04:27:58;;;;;;;118.28;33.53;;;;;;;;;;4990824;28;20074;-81
2022/12/11 04:30:24;;;;;;;136.95;38.63;;;;;;;-0.71;100.00;66702.63;4991114;28;20030;-78
2022/12/11 04:32:51;;;;;;;122.47;36.47;;;;;;;-0.69;100.00;66707.50;4989372;28;20043;-79
2022/12/11 04:35:17;;;;;;;122.28;36.13;;;;;;;-0.69;100.00;66704.88;4983269;28;20034;-78
2022/12/11 04:37:43;;;;;;;119.45;32.72;;;;;;;-0.69;100.00;66699.66;4990342;28;20433;-79
2022/12/11 04:40:12;;;;;;;118.40;35.55;;;;;;;-0.69;100.00;66706.94;4987764;28;20047;-78
2022/12/11 04:42:37;;;;;;;127.90;36.28;;;;;;;-0.69;100.00;66707.50;4987707;28;20038;-79
2022/12/11 04:45:04;;;;;;;120.50;34.83;;;;;;;-0.70;100.00;66705.78;4989834;28;20043;-79
2022/12/11 04:47:30;;;;;;;127.47;33.75;;;;;;;-0.69;100.00;66704.88;4989375;28;20601;-79
2022/12/11 04:49:55;;;;;;;99.18;27.23;;;;;;;-0.69;100.00;66706.94;4990218;28;20046;-79
2022/12/11 04:52:21;;;;;;;125.43;34.17;;;;;;;-0.68;100.00;66705.44;4974368;28;20239;-79
2022/12/11 04:54:46;;;;;;;135.65;36.78;;;;;;;-0.66;100.00;66710.31;4978838;28;20054;-79
2022/12/11 04:57:11;;;;;;;132.27;35.50;;;;;;;;;;4993249;28;20145;-79
2022/12/11 04:59:37;;;;;;;147.38;38.70;;;;;;;;;;4987598;28;20046;-79
2022/12/11 05:02:02;;;;;;;127.03;35.65;;;;;;;-0.65;100.00;66708.25;4995162;28;20058;-78
2022/12/11 05:04:32;;;;;;;130.48;35.08;;;;;;;-0.66;100.00;66707.13;4990788;28;20041;-79
2022/12/11 05:06:58;;;;;;;120.55;36.72;;;;;;;-0.66;100.00;66707.13;4988044;28;20055;-79
2022/12/11 05:09:25;;;;;;;140.30;36.15;;;;;;;-0.65;100.00;66708.81;4987417;28;20101;-78
2022/12/11 05:11:50;;;;;;;135.70;36.85;;;;;;;-0.66;100.00;66709.72;4989217;28;20037;-78
2022/12/11 05:14:16;;;;;;;138.55;37.65;;;;;;;-0.66;100.00;66707.13;4975255;28;20042;-79
2022/12/11 05:16:41;;;;;;;132.85;35.13;;;;;;;-0.66;100.00;66707.13;4996846;28;20042;-77
2022/12/11 05:19:07;;;;;;;142.25;39.13;;;;;;;-0.67;100.00;66706.56;4983761;28;20053;-79
2022/12/11 05:21:32;;;;;;;153.35;40.30;;;;;;;-0.65;100.00;66708.25;4984701;28;20043;-79
2022/12/11 05:23:57;;;;;;;141.30;37.88;;;;;;;-0.66;100.00;66712.34;4979788;28;20069;-79
2022/12/11 05:26:23;;;;;;;130.18;32.78;;;;;;;-0.66;100.00;66707.69;4988531;28;20382;-79
2022/12/11 05:28:53;;;;;;;118.00;29.02;;;;;;;;;;4989438;28;20042;-78
2022/12/11 05:31:19;;;;;;;129.43;31.83;;;;;;;;;;4983951;28;20034;-79
2022/12/11 05:33:45;;;;;;;131.73;34.45;;;;;;;;;;4990422;28;20041;-79
2022/12/11 05:36:18;;;;;;;151.25;38.30;;;;;;;-0.66;100.00;66707.69;4990040;28;20449;-79
2022/12/11 05:38:44;;;;;;;135.73;35.88;;;;;;;-0.66;100.00;66707.13;4990102;28;20045;-80
2022/12/11 05:41:12;;;;;;;122.32;35.88;;;;;;;-0.65;100.00;66708.25;4985333;28;20510;-78
2022/12/11 05:43:38;;;;;;;146.32;39.50;;;;;;;;;;4988110;28;20390;-79
2022/12/11 05:46:12;;;;;;;130.60;34.40;;;;;;;-0.66;100.00;66710.31;4989090;28;20046;-78
2022/12/11 05:48:39;;;;;;;144.35;37.70;;;;;;;-0.62;100.00;66706.38;4988947;28;20038;-79
2022/12/11 05:51:07;;;;;;;144.38;36.47;;;;;;;-0.64;100.00;66709.38;4984223;28;20633;-78
2022/12/11 05:53:32;;;;;;;162.32;45.30;;;;;;;;;;4984034;28;20031;-78
2022/12/11 05:56:06;;;;;;;141.10;35.92;;;;;;;-0.60;100.00;66719.66;4987913;28;20042;-78
2022/12/11 05:58:32;;;;;;;152.23;42.75;;;;;;;-0.60;100.00;66719.09;4973360;28;20469;-78
2022/12/11 06:00:57;;;;;;;123.45;33.33;;;;;;;-0.62;100.00;66714.78;4985656;28;20133;-79
2022/12/11 06:03:23;;;;;;;167.02;43.20;;;;;;;-0.61;100.00;66713.28;4984855;28;20040;-78
2022/12/11 06:05:48;;;;;;;154.18;37.95;;;;;;;-0.59;100.00;66715.53;4982616;28;20448;-79
2022/12/11 06:08:13;;;;;;;157.82;40.78;;;;;;;;;;4970985;28;20038;-79
2022/12/11 06:10:48;;;;;;;158.48;40.25;;;;;;;-0.56;100.00;66718.34;4969561;28;20058;-79
2022/12/11 06:13:13;;;;;;;141.95;38.05;;;;;;;;;;5007891;28;20034;-79
2022/12/11 06:15:38;;;;;;;146.48;39.15;;;;;;;-0.55;100.00;66722.09;4990680;28;20054;-79
2022/12/11 06:18:04;;;;;;;145.02;38.65;;;;;;;;;;4990769;28;20107;-80
2022/12/11 06:20:33;;;;;;;147.43;39.50;;;;;;;-0.54;100.00;66721.16;5000496;28;20107;-79
2022/12/11 06:23:00;;;;;;;141.80;36.88;;;;;;;-0.54;100.00;66723.22;4983330;28;20041;-79
2022/12/11 06:25:26;;;;;;;158.80;40.45;;;;;;;-0.52;100.00;66718.19;4988843;28;20121;-80
2022/12/11 06:27:51;;;;;;;135.57;34.50;;;;;;;-0.52;100.00;66725.47;4988862;28;20042;-79
2022/12/11 06:30:17;;;;;;;140.07;36.75;;;;;;;-0.51;100.00;66726.59;4990388;28;20034;-80
2022/12/11 06:32:43;;;;;;;144.43;41.38;;;;;;;-0.52;100.00;66722.84;4978976;28;20413;-80
2022/12/11 06:35:08;;;;;;;145.00;35.47;;;;;;;-0.51;100.00;66723.97;4989113;28;20046;-80
2022/12/11 06:37:35;;;;;;;143.43;38.28;;;;;;;-0.52;100.00;66717.63;4988188;28;20039;-79
2022/12/11 06:40:02;;;;;;;156.45;39.75;;;;;;;-0.50;100.00;66725.66;4985751;28;20457;-80
2022/12/11 06:42:28;;;;;;;154.15;41.17;;;;;;;;;;4989110;28;20038;-79
2022/12/11 06:44:56;;;;;;;151.82;39.97;;;;;;;-0.49;100.00;66720.97;4992153;28;20096;-80
2022/12/11 06:47:22;;;;;;;137.38;35.25;;;;;;;-0.51;100.00;66729.22;4989878;28;20042;-79
2022/12/11 06:49:47;;;;;;;168.10;40.05;;;;;;;-0.48;100.00;66727.91;4987898;28;20109;-80
2022/12/11 06:52:12;;;;;;;141.93;35.45;;;;;;;-0.49;100.00;66726.78;4980477;28;20465;-79
2022/12/11 06:54:38;;;;;;;152.93;39.00;;;;;;;-0.49;100.00;66726.22;4971358;28;20053;-79
2022/12/11 06:57:04;;;;;;;141.20;33.58;;;;;;;-0.50;100.00;66725.66;4986170;28;20406;-79
2022/12/11 06:59:29;;;;;;;140.30;37.30;;;;;;;-0.47;100.00;66731.09;4987392;28;20046;-80
2022/12/11 07:01:54;;;;;;;158.52;41.55;;;;;;;;;;4987177;28;20038;-80
2022/12/11 07:04:23;;;;;;;157.15;40.20;;;;;;;-0.45;100.00;66733.34;4983394;28;20034;-79
2022/12/11 07:06:48;;;;;;;143.80;37.40;;;;;;;-0.47;100.00;66731.09;4985111;28;20046;-78
2022/12/11 07:09:14;;;;;;;165.98;40.55;;;;;;;-0.45;100.00;66730.72;4987797;28;20560;-78
2022/12/11 07:11:39;;;;;;;146.43;38.53;;;;;;;;;;4983839;28;20571;-78
2022/12/11 07:14:04;;;;;;;158.70;39.38;;;;;;;;;;4988095;28;20641;-78
2022/12/11 07:16:30;;;;;;;152.07;36.75;;;;;;;-0.43;100.00;66735.00;4988154;28;20034;-79
2022/12/11 07:18:55;;;;;;;158.75;42.13;;;;;;;-0.43;100.00;66727.16;5001668;28;20100;-79
2022/12/11 07:21:26;;;;;;;168.43;42.25;;;;;;;-0.42;100.00;66733.53;4987821;28;20070;-78
2022/12/11 07:23:52;;;;;;;159.30;40.60;;;;;;;-0.42;100.00;66726.25;4982799;28;20034;-79
2022/12/11 07:26:20;;;;;;;163.77;42.40;;;;;;;-0.41;100.00;66734.66;4986851;28;20046;-79
2022/12/11 07:28:46;;;;;;;158.25;41.53;;;;;;;-0.43;100.00;66735.59;4979981;28;20561;-79
2022/12/11 07:31:17;;;;;;;170.02;43.42;;;;;;;-0.43;100.00;66727.75;4990213;28;20046;-78
2022/12/11 07:33:43;;;;;;;157.60;40.60;;;;;;;-0.41;100.00;66735.22;4984722;28;20042;-79
2022/12/11 07:36:09;;;;;;;158.73;41.63;;;;;;;;;;4991120;28;20064;-78
2022/12/11 07:38:35;;;;;;;157.85;40.53;;;;;;;-0.42;100.00;66734.09;4987399;28;20042;-79
2022/12/11 07:41:05;;;;;;;151.82;38.40;;;;;;;-0.41;100.00;66735.22;4984883;28;20077;-79
2022/12/11 07:43:32;;;;;;;160.88;39.53;;;;;;;-0.42;100.00;66736.16;5017485;28;20038;-80
2022/12/11 07:46:01;;;;;;;150.25;41.35;;;;;;;;;;5004725;28;20096;-80
2022/12/11 07:48:26;;;;;;;;;;;;;;;-0.40;100.00;66741.00;4991848;28;20120;-79
2022/12/11 07:50:51;;;;;;;155.45;39.70;;;;;;;;;;4987400;28;19960;-79
2022/12/11 07:53:17;;;;;;;173.52;44.63;;;;;;;-0.48;100.00;66727.91;4991606;28;20045;-79
2022/12/11 07:55:42;;;;;;;168.52;42.17;;;;;;;;;;4977935;28;20046;-79
2022/12/11 07:58:07;;;;;;;159.25;42.72;;;;;;;-0.43;100.00;66732.97;4992963;28;20041;-80
2022/12/11 08:00:33;;;;;;;150.57;42.13;;;;;;;;;;4991038;28;20042;-80
2022/12/11 08:02:58;;;;;;;154.23;43.22;;;;;;;;;;5007700;28;20560;-80
2022/12/11 08:05:23;;;;;;;172.52;44.58;;;;;;;-0.39;100.00;66737.47;4990983;28;20038;-79
2022/12/11 08:07:48;;;;;;;163.20;40.85;;;;;;;;;;4986390;28;20049;-79
2022/12/11 08:10:14;;;;;;;163.18;42.15;;;;;;;-0.39;100.00;66739.53;5006804;28;20129;-79
2022/12/11 08:12:39;;;;;;;167.32;39.58;;;;;;;-0.39;100.00;66740.06;4995544;28;20534;-79
2022/12/11 08:15:05;;;;;;;156.85;41.20;;;;;;;-0.37;100.00;66739.72;4987933;28;20080;-79
2022/12/11 08:17:30;;;;;;;165.38;41.30;;;;;;;-0.38;100.00;66741.19;4990252;28;20105;-78
2022/12/11 08:19:56;;;;;;;175.70;43.40;;;;;;;-0.36;100.00;66740.84;4982181;28;20048;-79
2022/12/11 08:22:21;;;;;;;167.90;43.92;;;;;;;-0.36;100.00;66740.84;4980287;28;20038;-78
2022/12/11 08:24:46;;;;;;;163.00;40.08;;;;;;;-0.35;100.00;66741.94;4993087;28;20045;-79
2022/12/11 08:27:12;;;;;;;180.00;46.33;;;;;;;;;;4990409;28;20058;-79
2022/12/11 08:29:37;;;;;;;167.55;43.28;;;;;;;-0.35;100.00;66744.56;4990924;28;20045;-78
2022/12/11 08:32:03;;;;;;;174.57;46.65;;;;;;;-0.35;100.00;66736.72;4987163;28;20657;-79
2022/12/11 08:34:28;;;;;;;177.93;41.20;;;;;;;-0.36;100.00;66740.84;4989075;28;20034;-79
2022/12/11 08:36:53;;;;;;;158.43;43.75;;;;;;;-0.35;100.00;66741.38;4990795;28;20034;-79
2022/12/11 08:39:19;;;;;;;161.70;41.90;;;;;;;;;;4989544;28;20038;-79
2022/12/11 08:41:44;;;;;;;157.15;36.42;;;;;;;-0.36;100.00;66740.28;4987624;28;20533;-79
2022/12/11 08:44:11;;;;;;;170.05;45.05;;;;;;;;;;4991347;28;20045;-79
2022/12/11 08:46:36;;;;;;;152.88;46.72;;;;;;;-0.34;100.00;66748.31;4987977;28;20772;-79
2022/12/11 08:49:02;;;;;;;156.43;42.58;;;;;;;-0.34;100.00;66737.84;4988547;28;20046;-79
2022/12/11 08:51:28;;;;;;;141.70;36.53;;;;;;;-0.34;100.00;66742.53;4986488;28;20047;-78
2022/12/11 08:53:55;;;;;;;166.82;46.60;;;;;;;;;;4981239;28;20042;-80
2022/12/11 08:56:22;;;;;;;157.88;45.10;;;;;;;-0.30;100.00;66747.56;4990701;28;20581;-78
2022/12/11 08:58:48;;;;;;;159.45;44.40;;;;;;;-0.30;100.00;66749.63;4988856;28;20457;-80
2022/12/11 09:01:22;;;;;;;170.68;48.22;;;;;;;-0.28;100.00;66751.88;4991986;28;20050;-79
2022/12/11 09:03:49;;;;;;;180.73;44.38;;;;;;;-0.30;100.00;66752.81;4994208;28;20449;-79
2022/12/11 09:06:18;;;;;;;163.38;43.70;;;;;;;-0.30;100.00;66747.56;4991939;28;20594;-79
2022/12/11 09:08:46;;;;;;;162.50;41.63;;;;;;;-0.28;100.00;66749.81;4993600;28;20033;-79
2022/12/11 09:11:14;;;;;;;165.50;43.08;;;;;;;-0.27;100.00;66756.19;4988465;28;20100;-80
2022/12/11 09:13:40;;;;;;;163.70;45.90;;;;;;;;;;4995976;28;20034;-79
2022/12/11 09:16:08;;;;;;;165.35;44.85;;;;;;;-0.26;100.00;66746.28;4993259;28;20100;-79
2022/12/11 09:18:34;;;;;;;178.65;51.13;;;;;;;-0.24;100.00;66756.94;4998145;28;20057;-81
2022/12/11 09:21:10;;;;;;;164.77;44.45;;;;;;;-0.24;100.00;66759.53;4993943;28;20074;-79
2022/12/11 09:23:36;;;;;;;166.93;40.10;;;;;;;-0.26;100.00;66754.69;5003002;28;20440;-80
2022/12/11 09:26:05;;;;;;;168.20;46.85;;;;;;;;;;4996202;28;20042;-80
2022/12/11 09:28:31;;;;;;;178.38;46.80;;;;;;;-0.22;100.00;66758.06;4989822;28;20045;-79
2022/12/11 09:30:56;;;;;;;152.98;44.53;;;;;;;-0.24;100.00;66754.31;4993079;28;20042;-79
2022/12/11 09:33:21;;;;;;;164.48;44.45;;;;;;;;;;4989789;28;20046;-78
2022/12/11 09:36:00;;;;;;;172.15;45.72;;;;;;;-0.21;100.00;66757.13;4992431;28;20038;-78
2022/12/11 09:38:26;;;;;;;163.35;41.47;;;;;;;-0.27;100.00;66750.38;4987503;28;20069;-79
2022/12/11 09:40:51;;;;;;;165.48;46.63;;;;;;;;;;4987066;28;20485;-79
2022/12/11 09:43:28;;;;;;;164.10;46.58;;;;;;;-0.21;100.00;66759.19;4983197;28;20073;-79
2022/12/11 09:46:01;;;;;;;169.80;51.50;;;;;;;-0.22;100.00;66755.44;4985868;28;20057;-78
2022/12/11 09:48:29;;;;;;;174.57;52.53;;;;;;;-0.21;100.00;66757.13;4975493;28;20038;-78
2022/12/11 09:50:56;;;;;;;148.25;50.72;;;;;;;-0.22;100.00;66756.00;5002407;28;20061;-79
2022/12/11 09:53:31;;;;;;;143.57;41.60;;;;;;;-0.20;100.00;66760.31;4984879;28;20090;-78
2022/12/11 09:56:02;;;;;;;164.38;51.05;;;;;;;;;;4994913;28;20125;-80
2022/12/11 09:58:40;;;;;;;156.10;46.53;;;;;;;-0.18;100.00;66762.56;4987148;28;20068;-79
2022/12/11 10:01:18;;;;;;;161.85;48.92;;;;;;;-0.18;100.00;66760.50;4985359;28;20409;-79
2022/12/11 10:04:16;;;;;;;137.80;43.35;;;;;;;-0.21;100.00;66756.56;4983906;28;20049;-81
2022/12/11 10:06:48;;;;;;;127.70;39.10;;;;;;;-0.18;100.00;66759.94;4982120;28;20113;-84
2022/12/11 10:09:23;;;;;;;136.45;40.92;;;;;;;-0.18;100.00;66759.94;4988185;28;20441;-82
2022/12/11 10:11:51;;;;;;;145.48;42.95;;;;;;;;;;4985230;28;20493;-82
2022/12/11 10:14:41;;;;;;;148.60;52.30;;;;;;;-0.15;100.00;66768.53;4982492;28;20137;-84
2022/12/11 10:17:26;;;;;;;152.75;51.17;;;;;;;;;;4982660;28;20044;-84
2022/12/11 10:19:53;;;;;;;161.20;53.58;;;;;;;-0.15;100.00;66758.63;4988888;28;20071;-84
2022/12/11 10:22:31;;;;;;;129.52;46.08;;;;;;;-0.18;100.00;66760.50;4992740;28;20501;-85
2022/12/11 10:24:59;;;;;;;135.98;42.95;;;;;;;-0.16;100.00;66756.97;4984182;28;20038;-83
2022/12/11 10:27:30;;;;;;;135.60;46.67;;;;;;;;;;4987175;28;20045;-79
2022/12/11 10:29:58;;;;;;;124.28;44.50;;;;;;;-0.15;100.00;66763.88;4975862;28;20273;-80
2022/12/11 10:32:35;;;;;;;114.80;37.35;;;;;;;-0.16;100.00;66765.38;4983754;28;20050;-80
2022/12/11 10:35:05;;;;;;;133.65;43.97;;;;;;;-0.15;100.00;66766.47;4988650;28;20405;-79
2022/12/11 10:37:30;;;;;;;122.93;43.72;;;;;;;-0.16;100.00;66762.19;4988832;28;20038;-79
2022/12/11 10:39:55;;;;;;;106.43;37.03;;;;;;;-0.16;100.00;66762.19;4987897;28;20092;-79
2022/12/11 10:42:22;;;;;;;115.35;36.13;;;;;;;-0.20;100.00;66758.25;4978638;28;20042;-79
2022/12/11 10:44:56;;;;;;;113.18;43.80;;;;;;;;;;4983507;28;20058;-80
2022/12/11 10:47:22;;;;;;;115.07;43.00;;;;;;;;;;4983147;28;20580;-80
2022/12/11 10:49:57;;;;;;;112.70;36.00;;;;;;;-0.16;100.00;66762.75;4985522;28;20057;-80
2022/12/11 10:52:25;;;;;;;120.53;45.88;;;;;;;-0.16;100.00;66762.75;4982595;28;20066;-80
2022/12/11 10:54:55;;;;;;;110.97;38.60;;;;;;;;;;4987813;28;20505;-79
2022/12/11 10:57:28;;;;;;;95.78;35.28;;;;;;;-0.16;100.00;66765.38;4987346;28;20042;-79
2022/12/11 10:59:54;;;;;;;101.00;40.67;;;;;;;-0.18;100.00;66760.50;4986578;28;20047;-80
2022/12/11 11:02:26;;;;;;;94.82;38.03;;;;;;;-0.18;100.00;66759.94;4983344;28;20085;-80
2022/12/11 11:04:54;;;;;;;95.38;36.75;;;;;;;-0.17;100.00;66761.06;4988625;28;20042;-80
2022/12/11 11:07:28;;;;;;;95.45;36.28;;;;;;;-0.14;100.00;66759.22;4992556;28;20050;-80
2022/12/11 11:10:09;;;;;;;91.10;38.72;;;;;;;;;;4985420;28;20052;-80
2022/12/11 11:12:43;;;;;;;91.00;36.83;;;;;;;-0.16;100.00;66762.75;4990892;28;20039;-80
2022/12/11 11:15:27;;;;;;;87.60;33.33;;;;;;;;;;4980181;28;20149;-80
2022/12/11 11:17:54;;;;;;;85.88;32.85;;;;;;;-0.15;100.00;66765.94;4993675;28;20054;-80
2022/12/11 11:20:28;;;;;;;96.45;39.15;;;;;;;-0.16;100.00;66762.19;4984924;28;20039;-80
2022/12/11 11:22:56;;;;;;;89.78;38.25;;;;;;;-0.11;100.00;66770.44;4987517;28;20031;-80
2022/12/11 11:25:22;;;;;;;84.67;36.73;;;;;;;;;;4989502;28;20046;-80
2022/12/11 11:28:01;;;;;;;77.85;35.45;;;;;;;-0.11;100.00;66767.81;4983272;28;20297;-80
2022/12/11 11:30:33;;;;;;;73.30;33.90;;;;;;;-0.13;100.00;66768.75;4986681;28;20046;-80
2022/12/11 11:33:04;;;;;;;65.63;27.67;;;;;;;-0.14;100.00;66767.63;4985617;28;20047;-80
2022/12/11 11:35:30;;;;;;;78.32;35.03;;;;;;;-0.16;100.00;66762.75;4980317;28;20035;-81
2022/12/11 11:38:01;;;;;;;70.35;31.45;;;;;;;;;;4999095;28;20080;-80
2022/12/11 11:40:32;;;;;;;63.72;27.92;;;;;;;;;;4985196;28;20045;-82
2022/12/11 11:43:10;;;;;;;65.25;29.05;;;;;;;-0.20;100.00;66763.50;4972115;28;20221;-81
2022/12/11 11:45:49;;;;;;;58.22;24.92;;;;;;;-0.18;100.00;66762.56;4974117;28;20474;-81
2022/12/11 11:48:24;;;;;;;63.67;27.63;;;;;;;-0.19;100.00;66759.38;4987330;28;20137;-81
2022/12/11 11:50:52;;;;;;;62.28;27.85;;;;;;;-0.18;100.00;66762.56;4980165;28;20038;-80
2022/12/11 11:53:36;;;;;;;56.95;29.60;;;;;;;;;;4969685;28;20047;-80
2022/12/11 11:56:20;;;;;;;57.47;26.48;;;;;;;-0.24;100.00;66754.31;4982023;28;20038;-81
2022/12/11 11:59:02;;;;;;;54.70;21.73;;;;;;;-0.27;100.00;66750.94;4958270;28;20121;-81
2022/12/11 12:01:28;;;;;;;55.92;23.13;;;;;;;-0.29;100.00;66753.94;4982348;28;20039;-80
2022/12/11 12:03:54;;;;;;;62.38;28.95;;;;;;;;;;4968025;28;20050;-80
2022/12/11 12:06:46;;;;;;;63.70;29.77;;;;;;;-0.21;100.00;66759.75;4979773;28;20057;-81